INFORMACIÓN METAR y TAF
METAR FOR LEGR
ADDS - METARS form results

(2339 UTC 12 September 2022)
Data provider http://aviationweather.gov/metar/data/
 
METAR text: LEGR 122330Z AUTO 18011G22KT 150V220 9999 BKN110 29/11 Q1013
Conditions at: LEGR (GRANADA AIRPORT , ES) observed 2330 UTC 12 September 2022
Temperature: 29.0°C (84°F)
Dewpoint: 11.0°C (52°F) [RH = 33%]
Pressure (altimeter): 29.91 inches Hg (1013.0 mb)
Winds: from the S (180 degrees) at 13 MPH (11 knots; 5.7 m/s)
gusting to 25 MPH (22 knots; 11.3 m/s)
Visibility: 6 or more miles (10+ km)
Ceiling: 11000 feet AGL
Clouds: broken clouds at 11000 feet AGL
Weather: no significant weather observed at this time

METAR text: LEGR 122300Z AUTO 19004KT 150V230 9999 FEW075 28/10 Q1013
Conditions at: LEGR (GRANADA AIRPORT , ES) observed 2300 UTC 12 September 2022
Temperature: 28.0°C (82°F)
Dewpoint: 10.0°C (50°F) [RH = 32%]
Pressure (altimeter): 29.91 inches Hg (1013.0 mb)
Winds: from the S (190 degrees) at 5 MPH (4 knots; 2.1 m/s)
Visibility: 6 or more miles (10+ km)
Ceiling: at least 12,000 feet AGL
Clouds: few clouds at 7500 feet AGL
Weather: no significant weather observed at this time

Forecast for: LEGR (GRANADA AIRPORT , ES)
Text: TAF LEGR 122300Z 1300/1324 22008KT 9999 SCT080 TX28/1314Z TN21/1324Z
Forecast period: 0000 UTC 13 September 2022 to 0000 UTC 14 September 2022
Forecast type: FROM: standard forecast or significant change
Winds: from the SW (220 degrees) at 9 MPH (8 knots; 4.1 m/s)
Visibility: 6 or more miles (10+ km)
Ceiling: at least 12,000 feet AGL
Clouds: scattered clouds at 8000 feet AGL
Weather: no significant weather forecast for this period
Text: PROB30
Forecast period: 0000 to 1800 UTC 13 September 2022
Forecast type: TEMPORARY: The following changes expected for less than half the time period
Visibility: missing
Ceiling: at least 12,000 feet AGL
Clouds: scattered clouds at 5000 feet AGL
Weather: SHRA  (rain showers)

 MAPA DE AEROPUERTO

 INFORMACIÓN DE PISTA
Pista 09 Longitud 9514 ft Ancho 148 ft
Elevación 1842 ft Umbral desplazado 0 ft Rumbo de pista 90
Pista 27 Longitud 9514 ft Ancho 148 ft
Elevación 1860 ft Umbral desplazado 0 ft Rumbo de pista 270

 FRECUANCIAS DEL AEROPUERTO
Tipo GND Nombre GND Frecuencia 121.7 MHZ
Tipo TWR Nombre TWR Frecuencia 118.85 MHZ

 RADIO AYUDAS DEL AEROPUERTO
Tipo VOR-DME Nombre Granada Frecuencia 113400 KHZ



Powered by Virtual Airlines Manager [v2.6.2]